sensor_id;sensor_type;location;lat;lon;timestamp;temperature;humidity
19898;DHT22;10111;50.814;4.572;2023-09-19T00:00:37;16.60;99.90
19898;DHT22;10111;50.814;4.572;2023-09-19T00:03:03;16.60;99.90
19898;DHT22;10111;50.814;4.572;2023-09-19T00:05:30;16.50;99.90
19898;DHT22;10111;50.814;4.572;2023-09-19T00:07:57;16.50;99.90
19898;DHT22;10111;50.814;4.572;2023-09-19T00:10:26;16.50;99.90
19898;DHT22;10111;50.814;4.572;2023-09-19T00:12:53;16.60;99.90
19898;DHT22;10111;50.814;4.572;2023-09-19T00:15:22;16.60;99.90
19898;DHT22;10111;50.814;4.572;2023-09-19T00:17:48;16.60;99.90
19898;DHT22;10111;50.814;4.572;2023-09-19T00:20:14;16.50;99.90
19898;DHT22;10111;50.814;4.572;2023-09-19T00:22:43;16.50;99.90
19898;DHT22;10111;50.814;4.572;2023-09-19T00:25:09;16.50;99.90
19898;DHT22;10111;50.814;4.572;2023-09-19T00:27:36;16.50;99.90
19898;DHT22;10111;50.814;4.572;2023-09-19T00:30:07;16.50;99.90
19898;DHT22;10111;50.814;4.572;2023-09-19T00:32:34;16.50;99.90
19898;DHT22;10111;50.814;4.572;2023-09-19T00:35:00;16.50;99.90
19898;DHT22;10111;50.814;4.572;2023-09-19T00:37:25;16.50;99.90
19898;DHT22;10111;50.814;4.572;2023-09-19T00:39:51;16.50;99.90
19898;DHT22;10111;50.814;4.572;2023-09-19T00:42:20;16.50;99.90
19898;DHT22;10111;50.814;4.572;2023-09-19T00:44:47;16.50;99.90
19898;DHT22;10111;50.814;4.572;2023-09-19T00:47:13;16.40;99.90
19898;DHT22;10111;50.814;4.572;2023-09-19T00:49:44;16.40;99.90
19898;DHT22;10111;50.814;4.572;2023-09-19T00:52:11;16.50;99.90
19898;DHT22;10111;50.814;4.572;2023-09-19T00:54:37;16.50;99.90
19898;DHT22;10111;50.814;4.572;2023-09-19T00:57:03;16.50;99.90
19898;DHT22;10111;50.814;4.572;2023-09-19T00:59:29;16.40;99.90
19898;DHT22;10111;50.814;4.572;2023-09-19T01:01:56;16.40;99.90
19898;DHT22;10111;50.814;4.572;2023-09-19T01:04:22;16.40;99.90
19898;DHT22;10111;50.814;4.572;2023-09-19T01:06:49;16.30;99.90
19898;DHT22;10111;50.814;4.572;2023-09-19T01:09:19;16.30;99.90
19898;DHT22;10111;50.814;4.572;2023-09-19T01:11:48;16.30;99.90
19898;DHT22;10111;50.814;4.572;2023-09-19T01:14:34;16.30;99.90
19898;DHT22;10111;50.814;4.572;2023-09-19T01:17:22;16.30;99.90
19898;DHT22;10111;50.814;4.572;2023-09-19T01:30:57;16.20;99.90
19898;DHT22;10111;50.814;4.572;2023-09-19T01:33:24;16.20;99.90
19898;DHT22;10111;50.814;4.572;2023-09-19T01:35:51;16.20;99.90
19898;DHT22;10111;50.814;4.572;2023-09-19T01:38:19;16.10;99.90
19898;DHT22;10111;50.814;4.572;2023-09-19T01:40:54;16.10;99.90
19898;DHT22;10111;50.814;4.572;2023-09-19T01:43:31;16.10;99.90
19898;DHT22;10111;50.814;4.572;2023-09-19T01:46:05;16.00;99.90
19898;DHT22;10111;50.814;4.572;2023-09-19T01:48:43;16.00;99.90
19898;DHT22;10111;50.814;4.572;2023-09-19T01:51:18;15.90;99.90
19898;DHT22;10111;50.814;4.572;2023-09-19T01:54:10;15.90;99.90
19898;DHT22;10111;50.814;4.572;2023-09-19T01:59:13;15.90;99.90
19898;DHT22;10111;50.814;4.572;2023-09-19T02:01:39;15.90;99.90
19898;DHT22;10111;50.814;4.572;2023-09-19T02:04:07;15.90;99.90
19898;DHT22;10111;50.814;4.572;2023-09-19T02:06:33;15.90;99.90
19898;DHT22;10111;50.814;4.572;2023-09-19T02:08:59;15.90;99.90
19898;DHT22;10111;50.814;4.572;2023-09-19T02:11:25;15.90;99.90
19898;DHT22;10111;50.814;4.572;2023-09-19T02:13:51;15.90;99.90
19898;DHT22;10111;50.814;4.572;2023-09-19T02:16:20;16.00;99.90
19898;DHT22;10111;50.814;4.572;2023-09-19T02:18:50;16.00;99.90
19898;DHT22;10111;50.814;4.572;2023-09-19T02:21:17;16.00;99.90
19898;DHT22;10111;50.814;4.572;2023-09-19T02:23:44;16.00;99.90
19898;DHT22;10111;50.814;4.572;2023-09-19T02:26:09;16.00;99.90
19898;DHT22;10111;50.814;4.572;2023-09-19T02:28:37;16.00;99.90
19898;DHT22;10111;50.814;4.572;2023-09-19T02:31:03;16.00;99.90
19898;DHT22;10111;50.814;4.572;2023-09-19T02:33:31;15.90;99.90
19898;DHT22;10111;50.814;4.572;2023-09-19T02:35:58;16.00;99.90
19898;DHT22;10111;50.814;4.572;2023-09-19T02:38:25;16.00;99.90
19898;DHT22;10111;50.814;4.572;2023-09-19T02:40:52;16.00;99.90
19898;DHT22;10111;50.814;4.572;2023-09-19T02:43:18;15.90;99.90
19898;DHT22;10111;50.814;4.572;2023-09-19T02:45:45;15.90;99.90
19898;DHT22;10111;50.814;4.572;2023-09-19T02:48:12;16.00;99.90
19898;DHT22;10111;50.814;4.572;2023-09-19T02:50:37;16.00;99.90
19898;DHT22;10111;50.814;4.572;2023-09-19T02:53:04;15.90;99.90
19898;DHT22;10111;50.814;4.572;2023-09-19T02:55:31;16.00;99.90
19898;DHT22;10111;50.814;4.572;2023-09-19T02:57:57;16.00;99.90
19898;DHT22;10111;50.814;4.572;2023-09-19T03:00:23;16.00;99.90
19898;DHT22;10111;50.814;4.572;2023-09-19T03:02:50;16.00;99.90
19898;DHT22;10111;50.814;4.572;2023-09-19T03:05:17;16.00;99.90
19898;DHT22;10111;50.814;4.572;2023-09-19T03:07:43;15.90;99.90
19898;DHT22;10111;50.814;4.572;2023-09-19T03:10:11;16.00;99.90
19898;DHT22;10111;50.814;4.572;2023-09-19T03:12:37;16.00;99.90
19898;DHT22;10111;50.814;4.572;2023-09-19T03:15:03;16.00;99.90
19898;DHT22;10111;50.814;4.572;2023-09-19T03:17:30;16.00;99.90
19898;DHT22;10111;50.814;4.572;2023-09-19T03:19:55;16.00;99.90
19898;DHT22;10111;50.814;4.572;2023-09-19T03:22:22;16.00;99.90
19898;DHT22;10111;50.814;4.572;2023-09-19T03:24:50;16.00;99.90
19898;DHT22;10111;50.814;4.572;2023-09-19T03:27:15;16.00;99.90
19898;DHT22;10111;50.814;4.572;2023-09-19T03:29:42;16.10;99.90
19898;DHT22;10111;50.814;4.572;2023-09-19T03:32:08;16.10;99.90
19898;DHT22;10111;50.814;4.572;2023-09-19T03:34:37;16.00;99.90
19898;DHT22;10111;50.814;4.572;2023-09-19T03:37:06;16.00;99.90
19898;DHT22;10111;50.814;4.572;2023-09-19T03:39:32;16.00;99.90
19898;DHT22;10111;50.814;4.572;2023-09-19T03:41:58;16.00;99.90
19898;DHT22;10111;50.814;4.572;2023-09-19T03:44:23;16.10;99.90
19898;DHT22;10111;50.814;4.572;2023-09-19T03:46:49;16.10;99.90
19898;DHT22;10111;50.814;4.572;2023-09-19T03:49:15;16.20;99.90
19898;DHT22;10111;50.814;4.572;2023-09-19T03:51:41;16.30;99.90
19898;DHT22;10111;50.814;4.572;2023-09-19T03:54:07;16.40;99.90
19898;DHT22;10111;50.814;4.572;2023-09-19T03:56:33;16.40;99.90
19898;DHT22;10111;50.814;4.572;2023-09-19T03:58:59;16.40;99.90
19898;DHT22;10111;50.814;4.572;2023-09-19T04:01:24;16.40;99.90
19898;DHT22;10111;50.814;4.572;2023-09-19T04:03:51;16.30;99.90
19898;DHT22;10111;50.814;4.572;2023-09-19T04:06:18;16.30;99.90
19898;DHT22;10111;50.814;4.572;2023-09-19T04:08:44;16.20;99.90
19898;DHT22;10111;50.814;4.572;2023-09-19T04:11:11;16.10;99.90
19898;DHT22;10111;50.814;4.572;2023-09-19T04:13:37;16.10;99.90
19898;DHT22;10111;50.814;4.572;2023-09-19T04:16:03;16.00;99.90
19898;DHT22;10111;50.814;4.572;2023-09-19T04:18:35;15.90;99.90
19898;DHT22;10111;50.814;4.572;2023-09-19T04:21:03;15.90;99.90
19898;DHT22;10111;50.814;4.572;2023-09-19T04:23:34;15.80;99.90
19898;DHT22;10111;50.814;4.572;2023-09-19T04:26:00;15.80;99.90
19898;DHT22;10111;50.814;4.572;2023-09-19T04:28:25;15.80;99.90
19898;DHT22;10111;50.814;4.572;2023-09-19T04:30:53;15.70;99.90
19898;DHT22;10111;50.814;4.572;2023-09-19T04:33:19;15.70;99.90
19898;DHT22;10111;50.814;4.572;2023-09-19T04:35:44;15.80;99.90
19898;DHT22;10111;50.814;4.572;2023-09-19T04:38:10;15.80;99.90
19898;DHT22;10111;50.814;4.572;2023-09-19T04:40:37;15.90;99.90
19898;DHT22;10111;50.814;4.572;2023-09-19T04:43:05;15.70;99.90
19898;DHT22;10111;50.814;4.572;2023-09-19T04:45:31;15.70;99.90
19898;DHT22;10111;50.814;4.572;2023-09-19T04:47:57;15.80;99.90
19898;DHT22;10111;50.814;4.572;2023-09-19T04:50:22;15.70;99.90
19898;DHT22;10111;50.814;4.572;2023-09-19T04:52:50;15.60;99.90
19898;DHT22;10111;50.814;4.572;2023-09-19T04:55:17;15.60;99.90
19898;DHT22;10111;50.814;4.572;2023-09-19T04:57:45;15.50;99.90
19898;DHT22;10111;50.814;4.572;2023-09-19T05:00:15;15.40;99.90
19898;DHT22;10111;50.814;4.572;2023-09-19T05:02:42;15.40;99.90
19898;DHT22;10111;50.814;4.572;2023-09-19T05:05:09;15.40;99.90
19898;DHT22;10111;50.814;4.572;2023-09-19T05:07:45;15.50;99.90
19898;DHT22;10111;50.814;4.572;2023-09-19T05:10:11;15.40;99.90
19898;DHT22;10111;50.814;4.572;2023-09-19T05:12:38;15.30;99.90
19898;DHT22;10111;50.814;4.572;2023-09-19T05:15:04;15.30;99.90
19898;DHT22;10111;50.814;4.572;2023-09-19T05:17:30;15.20;99.90
19898;DHT22;10111;50.814;4.572;2023-09-19T05:19:57;15.20;99.90
19898;DHT22;10111;50.814;4.572;2023-09-19T05:22:23;15.30;99.90
19898;DHT22;10111;50.814;4.572;2023-09-19T05:24:50;15.20;99.90
19898;DHT22;10111;50.814;4.572;2023-09-19T05:27:16;15.20;99.90
19898;DHT22;10111;50.814;4.572;2023-09-19T05:29:45;15.20;99.90
19898;DHT22;10111;50.814;4.572;2023-09-19T05:32:11;15.20;99.90
19898;DHT22;10111;50.814;4.572;2023-09-19T05:34:38;15.20;99.90
19898;DHT22;10111;50.814;4.572;2023-09-19T05:37:04;15.30;99.90
19898;DHT22;10111;50.814;4.572;2023-09-19T05:39:33;15.30;99.90
19898;DHT22;10111;50.814;4.572;2023-09-19T05:42:00;15.20;99.90
19898;DHT22;10111;50.814;4.572;2023-09-19T05:44:26;15.10;99.90
19898;DHT22;10111;50.814;4.572;2023-09-19T05:46:53;15.10;99.90
19898;DHT22;10111;50.814;4.572;2023-09-19T05:49:19;15.10;99.90
19898;DHT22;10111;50.814;4.572;2023-09-19T05:51:47;15.10;99.90
19898;DHT22;10111;50.814;4.572;2023-09-19T05:54:12;15.20;99.90
19898;DHT22;10111;50.814;4.572;2023-09-19T05:56:38;15.20;99.90
19898;DHT22;10111;50.814;4.572;2023-09-19T05:59:04;15.30;99.90
19898;DHT22;10111;50.814;4.572;2023-09-19T06:01:30;15.40;99.90
19898;DHT22;10111;50.814;4.572;2023-09-19T06:03:58;15.40;99.90
19898;DHT22;10111;50.814;4.572;2023-09-19T06:06:25;15.50;99.90
19898;DHT22;10111;50.814;4.572;2023-09-19T06:08:51;15.50;99.90
19898;DHT22;10111;50.814;4.572;2023-09-19T06:11:17;15.50;99.90
19898;DHT22;10111;50.814;4.572;2023-09-19T06:13:46;15.50;99.90
19898;DHT22;10111;50.814;4.572;2023-09-19T06:16:12;15.40;99.90
19898;DHT22;10111;50.814;4.572;2023-09-19T06:18:38;15.40;99.90
19898;DHT22;10111;50.814;4.572;2023-09-19T06:21:05;15.50;99.90
19898;DHT22;10111;50.814;4.572;2023-09-19T06:23:34;15.60;99.90
19898;DHT22;10111;50.814;4.572;2023-09-19T06:26:00;15.70;99.90
19898;DHT22;10111;50.814;4.572;2023-09-19T06:28:26;15.80;99.90
19898;DHT22;10111;50.814;4.572;2023-09-19T06:30:54;15.80;99.90
19898;DHT22;10111;50.814;4.572;2023-09-19T06:33:20;15.90;99.90
19898;DHT22;10111;50.814;4.572;2023-09-19T06:35:47;16.00;99.90
19898;DHT22;10111;50.814;4.572;2023-09-19T06:38:13;16.00;99.90
19898;DHT22;10111;50.814;4.572;2023-09-19T06:40:41;16.10;99.90
19898;DHT22;10111;50.814;4.572;2023-09-19T06:43:10;16.20;99.90
19898;DHT22;10111;50.814;4.572;2023-09-19T06:45:35;16.20;99.90
19898;DHT22;10111;50.814;4.572;2023-09-19T06:48:01;16.20;99.90
19898;DHT22;10111;50.814;4.572;2023-09-19T06:50:28;16.30;99.90
19898;DHT22;10111;50.814;4.572;2023-09-19T06:52:56;16.30;99.90
19898;DHT22;10111;50.814;4.572;2023-09-19T06:55:23;16.30;99.90
19898;DHT22;10111;50.814;4.572;2023-09-19T06:57:56;16.40;99.90
19898;DHT22;10111;50.814;4.572;2023-09-19T07:00:23;16.40;99.90
19898;DHT22;10111;50.814;4.572;2023-09-19T07:02:59;16.40;99.90
19898;DHT22;10111;50.814;4.572;2023-09-19T07:05:27;16.40;99.90
19898;DHT22;10111;50.814;4.572;2023-09-19T07:07:53;16.40;99.90
19898;DHT22;10111;50.814;4.572;2023-09-19T07:10:20;16.40;99.90
19898;DHT22;10111;50.814;4.572;2023-09-19T07:13:00;16.50;99.90
19898;DHT22;10111;50.814;4.572;2023-09-19T07:15:26;16.40;99.90
19898;DHT22;10111;50.814;4.572;2023-09-19T07:17:53;16.50;99.90
19898;DHT22;10111;50.814;4.572;2023-09-19T07:20:23;16.50;99.90
19898;DHT22;10111;50.814;4.572;2023-09-19T07:22:51;16.50;99.90
19898;DHT22;10111;50.814;4.572;2023-09-19T07:25:16;16.50;99.90
19898;DHT22;10111;50.814;4.572;2023-09-19T07:27:42;16.60;99.90
19898;DHT22;10111;50.814;4.572;2023-09-19T07:30:09;16.70;99.90
19898;DHT22;10111;50.814;4.572;2023-09-19T07:32:35;16.80;99.90
19898;DHT22;10111;50.814;4.572;2023-09-19T07:35:02;17.00;99.90
19898;DHT22;10111;50.814;4.572;2023-09-19T07:37:29;17.10;99.90
19898;DHT22;10111;50.814;4.572;2023-09-19T07:39:56;17.30;99.90
19898;DHT22;10111;50.814;4.572;2023-09-19T07:42:22;17.40;99.90
19898;DHT22;10111;50.814;4.572;2023-09-19T07:44:48;17.50;99.90
19898;DHT22;10111;50.814;4.572;2023-09-19T07:47:16;17.50;99.90
19898;DHT22;10111;50.814;4.572;2023-09-19T07:49:42;17.60;99.90
19898;DHT22;10111;50.814;4.572;2023-09-19T07:52:08;17.60;99.90
19898;DHT22;10111;50.814;4.572;2023-09-19T07:54:35;17.80;99.90
19898;DHT22;10111;50.814;4.572;2023-09-19T07:57:01;17.80;99.90
19898;DHT22;10111;50.814;4.572;2023-09-19T07:59:27;17.80;99.90
19898;DHT22;10111;50.814;4.572;2023-09-19T08:01:53;17.90;99.90
19898;DHT22;10111;50.814;4.572;2023-09-19T08:04:23;18.00;99.90
19898;DHT22;10111;50.814;4.572;2023-09-19T08:06:51;18.10;99.90
19898;DHT22;10111;50.814;4.572;2023-09-19T08:09:17;18.10;99.90
19898;DHT22;10111;50.814;4.572;2023-09-19T08:11:47;18.30;99.90
19898;DHT22;10111;50.814;4.572;2023-09-19T08:14:13;18.40;99.90
19898;DHT22;10111;50.814;4.572;2023-09-19T08:16:40;18.40;99.90
19898;DHT22;10111;50.814;4.572;2023-09-19T08:19:05;18.50;99.90
19898;DHT22;10111;50.814;4.572;2023-09-19T08:21:31;18.60;99.90
19898;DHT22;10111;50.814;4.572;2023-09-19T08:23:57;18.50;99.90
19898;DHT22;10111;50.814;4.572;2023-09-19T08:26:23;18.40;99.90
19898;DHT22;10111;50.814;4.572;2023-09-19T08:28:49;18.40;99.90
19898;DHT22;10111;50.814;4.572;2023-09-19T08:31:17;18.40;99.90
19898;DHT22;10111;50.814;4.572;2023-09-19T08:33:43;18.50;99.90
19898;DHT22;10111;50.814;4.572;2023-09-19T08:36:12;18.50;99.90
19898;DHT22;10111;50.814;4.572;2023-09-19T08:38:39;18.70;99.90
19898;DHT22;10111;50.814;4.572;2023-09-19T08:41:06;18.70;99.90
19898;DHT22;10111;50.814;4.572;2023-09-19T08:43:33;18.70;99.90
19898;DHT22;10111;50.814;4.572;2023-09-19T08:46:12;18.80;99.90
19898;DHT22;10111;50.814;4.572;2023-09-19T08:48:45;18.90;99.90
19898;DHT22;10111;50.814;4.572;2023-09-19T08:51:20;18.90;99.90
19898;DHT22;10111;50.814;4.572;2023-09-19T08:56:20;19.00;99.90
19898;DHT22;10111;50.814;4.572;2023-09-19T08:58:54;19.20;99.90
19898;DHT22;10111;50.814;4.572;2023-09-19T09:01:22;19.30;99.90
19898;DHT22;10111;50.814;4.572;2023-09-19T09:03:52;19.30;99.90
19898;DHT22;10111;50.814;4.572;2023-09-19T09:06:20;19.40;99.90
19898;DHT22;10111;50.814;4.572;2023-09-19T09:08:46;19.30;99.90
19898;DHT22;10111;50.814;4.572;2023-09-19T09:11:13;19.50;99.90
19898;DHT22;10111;50.814;4.572;2023-09-19T09:13:40;19.60;99.90
19898;DHT22;10111;50.814;4.572;2023-09-19T09:16:07;19.60;99.90
19898;DHT22;10111;50.814;4.572;2023-09-19T09:18:34;19.70;99.90
19898;DHT22;10111;50.814;4.572;2023-09-19T09:20:59;19.80;99.90
19898;DHT22;10111;50.814;4.572;2023-09-19T09:23:27;19.90;99.90
19898;DHT22;10111;50.814;4.572;2023-09-19T09:25:55;20.00;99.90
19898;DHT22;10111;50.814;4.572;2023-09-19T09:28:29;20.00;99.90
19898;DHT22;10111;50.814;4.572;2023-09-19T09:30:57;20.00;99.90
19898;DHT22;10111;50.814;4.572;2023-09-19T09:33:25;20.10;99.90
19898;DHT22;10111;50.814;4.572;2023-09-19T09:35:56;20.20;99.90
19898;DHT22;10111;50.814;4.572;2023-09-19T09:38:25;20.40;99.90
19898;DHT22;10111;50.814;4.572;2023-09-19T09:40:56;20.30;99.90
19898;DHT22;10111;50.814;4.572;2023-09-19T09:43:29;20.30;99.90
19898;DHT22;10111;50.814;4.572;2023-09-19T09:49:02;20.30;99.90
19898;DHT22;10111;50.814;4.572;2023-09-19T09:51:51;20.40;99.90
19898;DHT22;10111;50.814;4.572;2023-09-19T09:54:25;20.40;99.90
19898;DHT22;10111;50.814;4.572;2023-09-19T09:57:02;20.30;99.90
19898;DHT22;10111;50.814;4.572;2023-09-19T10:02:28;20.20;99.90
19898;DHT22;10111;50.814;4.572;2023-09-19T10:04:58;20.00;99.90
19898;DHT22;10111;50.814;4.572;2023-09-19T10:07:35;20.00;99.90
19898;DHT22;10111;50.814;4.572;2023-09-19T10:10:04;20.10;99.90
19898;DHT22;10111;50.814;4.572;2023-09-19T10:12:54;20.00;99.90
19898;DHT22;10111;50.814;4.572;2023-09-19T10:15:26;19.80;99.90
19898;DHT22;10111;50.814;4.572;2023-09-19T10:17:52;19.80;99.90
19898;DHT22;10111;50.814;4.572;2023-09-19T10:20:21;19.70;99.90
19898;DHT22;10111;50.814;4.572;2023-09-19T10:23:10;19.60;99.90
19898;DHT22;10111;50.814;4.572;2023-09-19T10:25:44;19.60;99.90
19898;DHT22;10111;50.814;4.572;2023-09-19T10:28:15;19.70;99.90
19898;DHT22;10111;50.814;4.572;2023-09-19T10:30:45;19.70;99.90
19898;DHT22;10111;50.814;4.572;2023-09-19T10:33:13;19.60;99.90
19898;DHT22;10111;50.814;4.572;2023-09-19T10:35:42;19.70;99.90
19898;DHT22;10111;50.814;4.572;2023-09-19T10:38:13;19.70;99.90
19898;DHT22;10111;50.814;4.572;2023-09-19T10:40:40;19.80;99.90
19898;DHT22;10111;50.814;4.572;2023-09-19T10:43:17;19.90;99.90
19898;DHT22;10111;50.814;4.572;2023-09-19T10:45:47;19.90;99.90
19898;DHT22;10111;50.814;4.572;2023-09-19T10:48:16;19.80;99.90
19898;DHT22;10111;50.814;4.572;2023-09-19T10:50:56;19.80;99.90
19898;DHT22;10111;50.814;4.572;2023-09-19T10:53:26;19.90;99.90
19898;DHT22;10111;50.814;4.572;2023-09-19T10:55:58;19.80;99.90
19898;DHT22;10111;50.814;4.572;2023-09-19T10:58:30;19.80;99.90
19898;DHT22;10111;50.814;4.572;2023-09-19T11:01:00;19.80;99.90
19898;DHT22;10111;50.814;4.572;2023-09-19T11:03:41;19.90;99.90
19898;DHT22;10111;50.814;4.572;2023-09-19T11:06:11;19.90;99.90
19898;DHT22;10111;50.814;4.572;2023-09-19T11:08:52;19.90;99.90
19898;DHT22;10111;50.814;4.572;2023-09-19T11:11:48;19.90;99.90
19898;DHT22;10111;50.814;4.572;2023-09-19T11:30:41;20.50;99.90
19898;DHT22;10111;50.814;4.572;2023-09-19T11:33:28;20.60;99.90
19898;DHT22;10111;50.814;4.572;2023-09-19T11:43:48;20.70;99.90
19898;DHT22;10111;50.814;4.572;2023-09-19T11:46:16;20.60;99.90
19898;DHT22;10111;50.814;4.572;2023-09-19T11:48:43;20.70;99.90
19898;DHT22;10111;50.814;4.572;2023-09-19T11:51:24;20.80;99.90
19898;DHT22;10111;50.814;4.572;2023-09-19T11:53:57;20.70;99.90
19898;DHT22;10111;50.814;4.572;2023-09-19T11:56:26;20.80;99.90
19898;DHT22;10111;50.814;4.572;2023-09-19T11:58:57;21.00;99.90
19898;DHT22;10111;50.814;4.572;2023-09-19T12:01:31;21.10;99.90
19898;DHT22;10111;50.814;4.572;2023-09-19T12:03:59;21.30;99.90
19898;DHT22;10111;50.814;4.572;2023-09-19T12:06:26;21.40;99.90
19898;DHT22;10111;50.814;4.572;2023-09-19T12:08:52;21.40;99.90
19898;DHT22;10111;50.814;4.572;2023-09-19T12:11:23;21.50;99.90
19898;DHT22;10111;50.814;4.572;2023-09-19T12:13:50;21.50;99.90
19898;DHT22;10111;50.814;4.572;2023-09-19T12:16:19;21.50;99.90
19898;DHT22;10111;50.814;4.572;2023-09-19T12:18:49;21.40;99.90
19898;DHT22;10111;50.814;4.572;2023-09-19T12:21:45;21.30;99.90
19898;DHT22;10111;50.814;4.572;2023-09-19T12:24:19;21.30;99.90
19898;DHT22;10111;50.814;4.572;2023-09-19T12:26:46;21.10;99.90
19898;DHT22;10111;50.814;4.572;2023-09-19T12:29:21;21.00;99.90
19898;DHT22;10111;50.814;4.572;2023-09-19T12:31:57;21.00;99.90
19898;DHT22;10111;50.814;4.572;2023-09-19T12:34:28;21.10;99.90
19898;DHT22;10111;50.814;4.572;2023-09-19T12:37:13;21.20;99.90
19898;DHT22;10111;50.814;4.572;2023-09-19T12:40:04;21.10;99.90
19898;DHT22;10111;50.814;4.572;2023-09-19T12:42:41;21.10;99.90
19898;DHT22;10111;50.814;4.572;2023-09-19T12:45:08;21.10;99.90
19898;DHT22;10111;50.814;4.572;2023-09-19T12:47:39;20.90;99.90
19898;DHT22;10111;50.814;4.572;2023-09-19T12:52:46;20.80;99.90
19898;DHT22;10111;50.814;4.572;2023-09-19T12:55:30;20.70;99.90
19898;DHT22;10111;50.814;4.572;2023-09-19T13:00:44;21.00;99.90
19898;DHT22;10111;50.814;4.572;2023-09-19T13:03:11;21.10;99.90
19898;DHT22;10111;50.814;4.572;2023-09-19T13:08:18;21.60;99.90
19898;DHT22;10111;50.814;4.572;2023-09-19T13:11:06;21.50;99.90
19898;DHT22;10111;50.814;4.572;2023-09-19T13:13:32;21.50;99.90
19898;DHT22;10111;50.814;4.572;2023-09-19T13:16:00;21.40;99.90
19898;DHT22;10111;50.814;4.572;2023-09-19T13:18:27;21.30;99.90
19898;DHT22;10111;50.814;4.572;2023-09-19T13:21:06;21.30;99.90
19898;DHT22;10111;50.814;4.572;2023-09-19T13:23:36;21.40;99.90
19898;DHT22;10111;50.814;4.572;2023-09-19T13:26:02;21.30;99.90
19898;DHT22;10111;50.814;4.572;2023-09-19T13:28:30;21.30;99.90
19898;DHT22;10111;50.814;4.572;2023-09-19T13:30:55;21.30;99.90
19898;DHT22;10111;50.814;4.572;2023-09-19T13:33:21;21.40;99.90
19898;DHT22;10111;50.814;4.572;2023-09-19T13:35:46;21.30;99.90
19898;DHT22;10111;50.814;4.572;2023-09-19T13:38:13;21.20;99.90
19898;DHT22;10111;50.814;4.572;2023-09-19T13:40:40;21.20;99.90
19898;DHT22;10111;50.814;4.572;2023-09-19T13:43:07;21.30;99.90
19898;DHT22;10111;50.814;4.572;2023-09-19T13:45:33;21.20;99.90
19898;DHT22;10111;50.814;4.572;2023-09-19T13:47:59;21.10;99.90
19898;DHT22;10111;50.814;4.572;2023-09-19T13:50:25;21.10;99.90
19898;DHT22;10111;50.814;4.572;2023-09-19T13:52:52;21.30;99.90
19898;DHT22;10111;50.814;4.572;2023-09-19T13:55:19;21.50;99.90
19898;DHT22;10111;50.814;4.572;2023-09-19T13:57:48;21.60;99.90
19898;DHT22;10111;50.814;4.572;2023-09-19T14:00:20;21.70;99.90
19898;DHT22;10111;50.814;4.572;2023-09-19T14:02:45;21.60;99.90
19898;DHT22;10111;50.814;4.572;2023-09-19T14:05:12;21.50;99.90
19898;DHT22;10111;50.814;4.572;2023-09-19T14:07:41;21.50;99.90
19898;DHT22;10111;50.814;4.572;2023-09-19T14:10:07;21.60;99.90
19898;DHT22;10111;50.814;4.572;2023-09-19T14:12:36;21.60;99.90
19898;DHT22;10111;50.814;4.572;2023-09-19T14:15:03;21.50;99.90
19898;DHT22;10111;50.814;4.572;2023-09-19T14:17:29;21.50;99.90
19898;DHT22;10111;50.814;4.572;2023-09-19T14:19:55;21.40;99.90
19898;DHT22;10111;50.814;4.572;2023-09-19T14:22:20;21.30;99.90
19898;DHT22;10111;50.814;4.572;2023-09-19T14:24:47;21.20;99.90
19898;DHT22;10111;50.814;4.572;2023-09-19T14:27:13;21.00;99.90
19898;DHT22;10111;50.814;4.572;2023-09-19T14:29:38;21.00;99.90
19898;DHT22;10111;50.814;4.572;2023-09-19T14:32:05;20.90;99.90
19898;DHT22;10111;50.814;4.572;2023-09-19T14:34:30;20.90;99.90
19898;DHT22;10111;50.814;4.572;2023-09-19T14:36:57;21.00;99.90
19898;DHT22;10111;50.814;4.572;2023-09-19T14:39:22;21.10;99.90
19898;DHT22;10111;50.814;4.572;2023-09-19T14:41:49;21.10;99.90
19898;DHT22;10111;50.814;4.572;2023-09-19T14:44:15;21.20;99.90
19898;DHT22;10111;50.814;4.572;2023-09-19T14:46:42;21.30;99.90
19898;DHT22;10111;50.814;4.572;2023-09-19T14:49:10;21.50;99.90
19898;DHT22;10111;50.814;4.572;2023-09-19T14:51:38;21.60;99.90
19898;DHT22;10111;50.814;4.572;2023-09-19T14:54:05;21.50;99.90
19898;DHT22;10111;50.814;4.572;2023-09-19T14:56:32;21.30;99.90
19898;DHT22;10111;50.814;4.572;2023-09-19T14:58:58;21.20;99.90
19898;DHT22;10111;50.814;4.572;2023-09-19T15:01:24;21.30;99.90
19898;DHT22;10111;50.814;4.572;2023-09-19T15:03:49;21.30;99.90
19898;DHT22;10111;50.814;4.572;2023-09-19T15:06:15;21.20;99.90
19898;DHT22;10111;50.814;4.572;2023-09-19T15:08:43;21.10;99.90
19898;DHT22;10111;50.814;4.572;2023-09-19T15:11:19;21.10;99.90
19898;DHT22;10111;50.814;4.572;2023-09-19T15:13:46;21.10;99.90
19898;DHT22;10111;50.814;4.572;2023-09-19T15:16:12;21.10;99.90
19898;DHT22;10111;50.814;4.572;2023-09-19T15:18:40;21.20;99.90
19898;DHT22;10111;50.814;4.572;2023-09-19T15:21:08;21.30;99.90
19898;DHT22;10111;50.814;4.572;2023-09-19T15:23:35;21.30;99.90
19898;DHT22;10111;50.814;4.572;2023-09-19T15:26:07;21.10;99.90
19898;DHT22;10111;50.814;4.572;2023-09-19T15:28:37;21.00;99.90
19898;DHT22;10111;50.814;4.572;2023-09-19T15:31:10;20.90;99.90
19898;DHT22;10111;50.814;4.572;2023-09-19T15:33:37;20.80;99.90
19898;DHT22;10111;50.814;4.572;2023-09-19T15:36:07;20.70;99.90
19898;DHT22;10111;50.814;4.572;2023-09-19T15:41:24;20.70;99.90
19898;DHT22;10111;50.814;4.572;2023-09-19T15:43:49;20.70;99.90
19898;DHT22;10111;50.814;4.572;2023-09-19T15:46:15;20.70;99.90
19898;DHT22;10111;50.814;4.572;2023-09-19T15:48:42;20.60;99.90
19898;DHT22;10111;50.814;4.572;2023-09-19T15:51:08;20.60;99.90
19898;DHT22;10111;50.814;4.572;2023-09-19T15:53:47;20.50;99.90
19898;DHT22;10111;50.814;4.572;2023-09-19T15:56:15;20.40;99.90
19898;DHT22;10111;50.814;4.572;2023-09-19T15:58:44;20.60;99.90
19898;DHT22;10111;50.814;4.572;2023-09-19T16:01:10;20.70;99.90
19898;DHT22;10111;50.814;4.572;2023-09-19T16:03:41;20.60;99.90
19898;DHT22;10111;50.814;4.572;2023-09-19T16:06:17;20.40;99.90
19898;DHT22;10111;50.814;4.572;2023-09-19T16:08:51;20.40;99.90
19898;DHT22;10111;50.814;4.572;2023-09-19T16:11:17;20.40;99.90
19898;DHT22;10111;50.814;4.572;2023-09-19T16:13:45;20.40;99.90
19898;DHT22;10111;50.814;4.572;2023-09-19T16:16:12;20.40;99.90
19898;DHT22;10111;50.814;4.572;2023-09-19T16:21:14;20.40;99.90
19898;DHT22;10111;50.814;4.572;2023-09-19T16:23:40;20.40;99.90
19898;DHT22;10111;50.814;4.572;2023-09-19T16:26:07;20.30;99.90
19898;DHT22;10111;50.814;4.572;2023-09-19T16:28:35;20.20;99.90
19898;DHT22;10111;50.814;4.572;2023-09-19T16:31:05;20.20;99.90
19898;DHT22;10111;50.814;4.572;2023-09-19T16:33:35;20.20;99.90
19898;DHT22;10111;50.814;4.572;2023-09-19T16:38:36;20.20;99.90
19898;DHT22;10111;50.814;4.572;2023-09-19T16:41:03;20.20;99.90